Johann Essberger — CQKG — position and weather

sailwx.info

Track history (hours):
 
Tides and Currents Weather Stations Pressure Air Temp Water Temp Dewpoint Dewpoint Depression Visibility Wind Speed Wind Dir Waves Ship Positions

Johann Essberger

Last reported at 2014-Oct-01 06:17 UTC. Time now 2014-Oct-01 14:18 UTC.
Position N 54°36' W 001°10'.

Length 100 m; draft 5.4 m.

Type: Ship (hazmat cat B). MMSI: 255804460.

Date/timePositionNaut miles runAvg speedWind from/ knotsBaromVisibWave heightAir tempDewpointWater temp
2014-Oct-01 06:17N 54°36' W 001°10'2 3.4
2014-Oct-01 05:33N 54°39' W 001°09'5 5.0
2014-Oct-01 04:31N 54°41' W 001°01'0 0.0
2014-Oct-01 03:31N 54°41' W 001°01'0 0.0
2014-Oct-01 02:31N 54°42' W 001°02'0 0.0
2014-Oct-01 01:31N 54°42' W 001°02'0 0.0
2014-Oct-01 00:31N 54°42' W 001°02'0 0.0
2014-Sep-30 23:31N 54°41' W 001°02'0 0.0
2014-Sep-30 22:31N 54°41' W 001°02'0 0.0
2014-Sep-30 21:31N 54°41' W 001°02'0 0.1
2014-Sep-30 20:31N 54°41' W 001°01'0 0.0
2014-Sep-30 19:31N 54°41' W 001°01'0 0.0
2014-Sep-30 18:31N 54°41' W 001°01'0 0.0
2014-Sep-30 17:10N 54°41' W 001°01'0 0.0
2014-Sep-30 16:07N 54°41' W 001°01'0 0.0
2014-Sep-30 15:25N 54°41' W 001°01'0 0.1
2014-Sep-30 14:31N 54°41' W 001°02'0 0.0
2014-Sep-30 13:31N 54°41' W 001°02'0 0.0
2014-Sep-30 12:28N 54°41' W 001°02'0 0.0
2014-Sep-30 11:28N 54°41' W 001°02'0 0.1
2014-Sep-30 10:31N 54°41' W 001°01'0 0.0
2014-Sep-30 09:31N 54°41' W 001°01'0 0.0
2014-Sep-30 08:19N 54°41' W 001°01'0 0.0
2014-Sep-30 07:31N 54°41' W 001°01'0 0.0
2014-Sep-30 06:22N 54°41' W 001°01'0 0.0
2014-Sep-30 05:25N 54°41' W 001°01'0 0.0
2014-Sep-30 04:31N 54°41' W 001°01'0 0.0
2014-Sep-30 03:31N 54°41' W 001°01'0 0.0
2014-Sep-30 02:31N 54°41' W 001°02'0 0.0
2014-Sep-30 01:31N 54°41' W 001°02'0 0.0
2014-Sep-30 00:31N 54°41' W 001°02'0 0.0
2014-Sep-29 23:31N 54°41' W 001°02'0 0.0
2014-Sep-29 22:31N 54°41' W 001°02'0 0.0
2014-Sep-29 21:31N 54°41' W 001°02'0 0.1
2014-Sep-29 20:31N 54°41' W 001°02'0 0.0
2014-Sep-29 19:31N 54°41' W 001°02'0 0.0
2014-Sep-29 18:31N 54°41' W 001°02'0 0.0
2014-Sep-29 17:31N 54°41' W 001°02'0 0.1
2014-Sep-29 16:19N 54°41' W 001°02'0 0.0
2014-Sep-29 15:10N 54°41' W 001°02'0 0.0
2014-Sep-29 14:22N 54°41' W 001°02'0 0.0
2014-Sep-29 13:13N 54°41' W 001°02'0 0.0
2014-Sep-29 12:25N 54°41' W 001°02'0 0.0
2014-Sep-29 11:31N 54°41' W 001°02'0 0.0
2014-Sep-29 10:31N 54°41' W 001°02'0 0.1
2014-Sep-29 09:16N 54°41' W 001°02'0 0.0
2014-Sep-29 08:13N 54°41' W 001°02'0 0.0
2014-Sep-29 07:31N 54°41' W 001°02'0 0.0
2014-Sep-29 06:31N 54°41' W 001°02'0 0.0
2014-Sep-29 05:12N 54°41' W 001°02'0 0.0
2014-Sep-29 04:31N 54°41' W 001°02'0 0.0
2014-Sep-29 03:31N 54°41' W 001°02'0 0.0
2014-Sep-29 02:31N 54°41' W 001°02'0 0.1
2014-Sep-29 01:31N 54°41' W 001°02'0 0.0
2014-Sep-29 00:28N 54°41' W 001°02'0 0.0
2014-Sep-28 23:19N 54°41' W 001°02'0 0.0
2014-Sep-28 22:28N 54°41' W 001°02'0 0.0
2014-Sep-28 21:31N 54°41' W 001°02'0 0.1
2014-Sep-28 20:31N 54°41' W 001°02'0 0.0
2014-Sep-28 19:31N 54°41' W 001°02'0 0.0
2014-Sep-28 18:31N 54°41' W 001°02'0 0.0
2014-Sep-28 17:28N 54°41' W 001°02'0 0.0
2014-Sep-28 16:19N 54°41' W 001°02'0 0.0
2014-Sep-28 14:22N 54°41' W 001°02'0 0.1
2014-Sep-28 13:19N 54°41' W 001°02'0 0.1
2014-Sep-28 12:34N 54°41' W 001°02'7 6.7
2014-Sep-28 11:33N 54°37' W 001°10'4 0.3
2014-Sep-27 20:15N 54°40' W 001°06'5 7.3
2014-Sep-27 19:33N 54°39' W 000°57'1711.9
2014-Sep-27 18:06N 54°33' W 000°30'611.3
2014-Sep-27 17:34N 54°30' W 000°20'1110.9
2014-Sep-27 16:33N 54°26' W 000°03'1010.5
2014-Sep-27 15:34N 54°18' E 000°09'1211.5
2014-Sep-27 14:33N 54°08' E 000°20'1312.5
2014-Sep-27 13:33N 53°57' E 000°27'1412.9
2014-Sep-27 12:30N 53°43' E 000°29'1313.2
2014-Sep-27 11:34N 53°33' E 000°16'1413.7
2014-Sep-27 10:33N 53°37' W 000°07'3 2.6
2014-Sep-27 09:25N 53°38' W 000°11'0 0.0
2014-Sep-26 09:33N 53°38' W 000°11'2 2.0
2014-Sep-26 08:33N 53°38' W 000°08'1111.1
2014-Sep-26 07:33N 53°33' E 000°09'10 9.6
2014-Sep-26 06:33N 53°30' E 000°24'4210.5
2014-Sep-26 02:33N 53°06' E 001°22'1313.3
2014-Sep-26 01:33N 52°56' E 001°37'1312.6
2014-Sep-26 00:33N 52°46' E 001°51'1111.3
2014-Sep-25 23:33N 52°37' E 002°01'1010.2
2014-Sep-25 22:33N 52°28' E 002°09'68 9.8
2014-Sep-25 15:33N 51°37' E 003°22'1312.9
2014-Sep-25 14:33N 51°26' E 003°34'9 9.4
2014-Sep-25 13:33N 51°21' E 003°47'9 9.0
2014-Sep-25 12:34N 51°26' E 003°59'9 8.6
2014-Sep-25 11:34N 51°24' E 004°13'4 4.1
2014-Sep-25 10:33N 51°21' E 004°17'1 1.3
2014-Sep-25 09:34N 51°20' E 004°18'5 4.9
2014-Sep-25 08:31N 51°15' E 004°23'0 0.0
2014-Sep-25 07:29N 51°15' E 004°23'0 0.0
2014-Sep-24 18:23N 51°15' E 004°23'2 2.5
2014-Sep-24 17:33N 51°17' E 004°20'2 2.4
2014-Sep-24 16:32N 51°19' E 004°18'0 0.0
2014-Sep-24 04:33N 51°19' E 004°18'2 1.9
2014-Sep-24 03:33N 51°21' E 004°17'1 1.2
2014-Sep-24 02:33N 51°20' E 004°16'4 3.8
2014-Sep-24 01:34N 51°16' E 004°17'1 0.8
2014-Sep-24 00:33N 51°16' E 004°15'0 0.0
2014-Sep-23 05:33N 51°16' E 004°15'1 0.9
2014-Sep-23 04:34N 51°16' E 004°17'4 4.2
2014-Sep-23 03:34N 51°20' E 004°16'10 9.5
2014-Sep-23 02:34N 51°23' E 004°02'9 9.1
2014-Sep-23 01:33N 51°21' E 003°48'1110.9
2014-Sep-23 00:33N 51°25' E 003°32'1111.1
2014-Sep-22 23:33N 51°24' E 003°14'1313.1
2014-Sep-22 22:33N 51°22' E 002°53'1313.0
2014-Sep-22 21:32N 51°22' E 002°32'1111.1
2014-Sep-22 20:32N 51°18' E 002°15'1110.9
2014-Sep-22 19:33N 51°22' E 001°60'8 7.7
2014-Sep-22 18:33N 51°30' E 001°59'9 9.0
2014-Sep-22 17:34N 51°37' E 002°09'5 1.7
2014-Sep-22 14:34N 51°42' E 002°07'8 7.9
2014-Sep-22 13:34N 51°36' E 001°59'1111.2
2014-Sep-22 12:34N 51°31' E 001°43'1111.2
2014-Sep-22 11:33N 51°25' E 001°27'0 0.0
2014-Sep-22 10:33N 51°25' E 001°27'0 0.0
2014-Sep-22 09:33N 51°25' E 001°27'0 0.1
2014-Sep-22 08:33N 51°25' E 001°27'0 0.0
2014-Sep-22 07:33N 51°25' E 001°27'0 0.0
2014-Sep-22 06:33N 51°25' E 001°27'0 0.0
2014-Sep-22 05:34N 51°25' E 001°27'0 0.0
2014-Sep-22 04:34N 51°25' E 001°27'0 0.0
2014-Sep-22 03:34N 51°25' E 001°27'0 0.0
2014-Sep-22 02:34N 51°25' E 001°27'0 0.0
2014-Sep-22 01:34N 51°25' E 001°27'0 0.1
2014-Sep-22 00:33N 51°25' E 001°27'0 0.0
2014-Sep-21 23:33N 51°25' E 001°27'0 0.1
2014-Sep-21 22:33N 51°25' E 001°27'0 0.0
2014-Sep-21 21:33N 51°25' E 001°27'0 0.1
2014-Sep-21 20:33N 51°25' E 001°27'0 0.0
2014-Sep-21 19:33N 51°25' E 001°27'0 0.0
2014-Sep-21 18:33N 51°25' E 001°27'0 0.0
2014-Sep-21 17:34N 51°25' E 001°27'0 0.0
2014-Sep-21 16:33N 51°25' E 001°27'0 0.0
2014-Sep-21 15:33N 51°25' E 001°27'0 0.0
2014-Sep-21 14:34N 51°25' E 001°27'0 0.0
2014-Sep-21 13:34N 51°25' E 001°27'6 6.2
2014-Sep-21 12:33N 51°29' E 001°19'1514.7
2014-Sep-21 11:34N 51°29' E 000°55'1313.3
2014-Sep-21 10:33N 51°30' E 000°34'9 9.3
2014-Sep-21 09:33N 51°28' E 000°19'1 0.9
2014-Sep-21 08:33N 51°28' E 000°18'  
Track history (hours):
 
Tides and Currents Weather Stations Pressure Air Temp Water Temp Dewpoint Dewpoint Depression Visibility Wind Speed Wind Dir Waves Ship Positions

Johann Essberger

Last reported at 2014-Oct-01 06:17 UTC. Time now 2014-Oct-01 14:18 UTC.
Position N 54°36' W 001°10'.

Length 100 m; draft 5.4 m.

Type: Ship (hazmat cat B). MMSI: 255804460.

Date/timePositionNaut miles runAvg speedWind from/ knotsBaromVisibWave heightAir tempDewpointWater temp
2014-Oct-01 06:17N 54°36' W 001°10'2 3.4
2014-Oct-01 05:33N 54°39' W 001°09'5 5.0
2014-Oct-01 04:31N 54°41' W 001°01'0 0.0
2014-Oct-01 03:31N 54°41' W 001°01'0 0.0
2014-Oct-01 02:31N 54°42' W 001°02'0 0.0
2014-Oct-01 01:31N 54°42' W 001°02'0 0.0
2014-Oct-01 00:31N 54°42' W 001°02'0 0.0
2014-Sep-30 23:31N 54°41' W 001°02'0 0.0
2014-Sep-30 22:31N 54°41' W 001°02'0 0.0
2014-Sep-30 21:31N 54°41' W 001°02'0 0.1
2014-Sep-30 20:31N 54°41' W 001°01'0 0.0
2014-Sep-30 19:31N 54°41' W 001°01'0 0.0
2014-Sep-30 18:31N 54°41' W 001°01'0 0.0
2014-Sep-30 17:10N 54°41' W 001°01'0 0.0
2014-Sep-30 16:07N 54°41' W 001°01'0 0.0
2014-Sep-30 15:25N 54°41' W 001°01'0 0.1
2014-Sep-30 14:31N 54°41' W 001°02'0 0.0
2014-Sep-30 13:31N 54°41' W 001°02'0 0.0
2014-Sep-30 12:28N 54°41' W 001°02'0 0.0
2014-Sep-30 11:28N 54°41' W 001°02'0 0.1
2014-Sep-30 10:31N 54°41' W 001°01'0 0.0
2014-Sep-30 09:31N 54°41' W 001°01'0 0.0
2014-Sep-30 08:19N 54°41' W 001°01'0 0.0
2014-Sep-30 07:31N 54°41' W 001°01'0 0.0
2014-Sep-30 06:22N 54°41' W 001°01'0 0.0
2014-Sep-30 05:25N 54°41' W 001°01'0 0.0
2014-Sep-30 04:31N 54°41' W 001°01'0 0.0
2014-Sep-30 03:31N 54°41' W 001°01'0 0.0
2014-Sep-30 02:31N 54°41' W 001°02'0 0.0
2014-Sep-30 01:31N 54°41' W 001°02'0 0.0
2014-Sep-30 00:31N 54°41' W 001°02'0 0.0
2014-Sep-29 23:31N 54°41' W 001°02'0 0.0
2014-Sep-29 22:31N 54°41' W 001°02'0 0.0
2014-Sep-29 21:31N 54°41' W 001°02'0 0.1
2014-Sep-29 20:31N 54°41' W 001°02'0 0.0
2014-Sep-29 19:31N 54°41' W 001°02'0 0.0
2014-Sep-29 18:31N 54°41' W 001°02'0 0.0
2014-Sep-29 17:31N 54°41' W 001°02'0 0.1
2014-Sep-29 16:19N 54°41' W 001°02'0 0.0
2014-Sep-29 15:10N 54°41' W 001°02'0 0.0
2014-Sep-29 14:22N 54°41' W 001°02'0 0.0
2014-Sep-29 13:13N 54°41' W 001°02'0 0.0
2014-Sep-29 12:25N 54°41' W 001°02'0 0.0
2014-Sep-29 11:31N 54°41' W 001°02'0 0.0
2014-Sep-29 10:31N 54°41' W 001°02'0 0.1
2014-Sep-29 09:16N 54°41' W 001°02'0 0.0
2014-Sep-29 08:13N 54°41' W 001°02'0 0.0
2014-Sep-29 07:31N 54°41' W 001°02'0 0.0
2014-Sep-29 06:31N 54°41' W 001°02'0 0.0
2014-Sep-29 05:12N 54°41' W 001°02'0 0.0
2014-Sep-29 04:31N 54°41' W 001°02'0 0.0
2014-Sep-29 03:31N 54°41' W 001°02'0 0.0
2014-Sep-29 02:31N 54°41' W 001°02'0 0.1
2014-Sep-29 01:31N 54°41' W 001°02'0 0.0
2014-Sep-29 00:28N 54°41' W 001°02'0 0.0
2014-Sep-28 23:19N 54°41' W 001°02'0 0.0
2014-Sep-28 22:28N 54°41' W 001°02'0 0.0
2014-Sep-28 21:31N 54°41' W 001°02'0 0.1
2014-Sep-28 20:31N 54°41' W 001°02'0 0.0
2014-Sep-28 19:31N 54°41' W 001°02'0 0.0
2014-Sep-28 18:31N 54°41' W 001°02'0 0.0
2014-Sep-28 17:28N 54°41' W 001°02'0 0.0
2014-Sep-28 16:19N 54°41' W 001°02'0 0.0
2014-Sep-28 14:22N 54°41' W 001°02'0 0.1
2014-Sep-28 13:19N 54°41' W 001°02'0 0.1
2014-Sep-28 12:34N 54°41' W 001°02'7 6.7
2014-Sep-28 11:33N 54°37' W 001°10'4 0.3
2014-Sep-27 20:15N 54°40' W 001°06'5 7.3
2014-Sep-27 19:33N 54°39' W 000°57'1711.9
2014-Sep-27 18:06N 54°33' W 000°30'611.3
2014-Sep-27 17:34N 54°30' W 000°20'1110.9
2014-Sep-27 16:33N 54°26' W 000°03'1010.5
2014-Sep-27 15:34N 54°18' E 000°09'1211.5
2014-Sep-27 14:33N 54°08' E 000°20'1312.5
2014-Sep-27 13:33N 53°57' E 000°27'1412.9
2014-Sep-27 12:30N 53°43' E 000°29'1313.2
2014-Sep-27 11:34N 53°33' E 000°16'1413.7
2014-Sep-27 10:33N 53°37' W 000°07'3 2.6
2014-Sep-27 09:25N 53°38' W 000°11'0 0.0
2014-Sep-26 09:33N 53°38' W 000°11'2 2.0
2014-Sep-26 08:33N 53°38' W 000°08'1111.1
2014-Sep-26 07:33N 53°33' E 000°09'10 9.6
2014-Sep-26 06:33N 53°30' E 000°24'4210.5
2014-Sep-26 02:33N 53°06' E 001°22'1313.3
2014-Sep-26 01:33N 52°56' E 001°37'1312.6
2014-Sep-26 00:33N 52°46' E 001°51'1111.3
2014-Sep-25 23:33N 52°37' E 002°01'1010.2
2014-Sep-25 22:33N 52°28' E 002°09'68 9.8
2014-Sep-25 15:33N 51°37' E 003°22'1312.9
2014-Sep-25 14:33N 51°26' E 003°34'9 9.4
2014-Sep-25 13:33N 51°21' E 003°47'9 9.0
2014-Sep-25 12:34N 51°26' E 003°59'9 8.6
2014-Sep-25 11:34N 51°24' E 004°13'4 4.1
2014-Sep-25 10:33N 51°21' E 004°17'1 1.3
2014-Sep-25 09:34N 51°20' E 004°18'5 4.9
2014-Sep-25 08:31N 51°15' E 004°23'0 0.0
2014-Sep-25 07:29N 51°15' E 004°23'0 0.0
2014-Sep-24 18:23N 51°15' E 004°23'2 2.5
2014-Sep-24 17:33N 51°17' E 004°20'2 2.4
2014-Sep-24 16:32N 51°19' E 004°18'0 0.0
2014-Sep-24 04:33N 51°19' E 004°18'2 1.9
2014-Sep-24 03:33N 51°21' E 004°17'1 1.2
2014-Sep-24 02:33N 51°20' E 004°16'4 3.8
2014-Sep-24 01:34N 51°16' E 004°17'1 0.8
2014-Sep-24 00:33N 51°16' E 004°15'0 0.0
2014-Sep-23 05:33N 51°16' E 004°15'1 0.9
2014-Sep-23 04:34N 51°16' E 004°17'4 4.2
2014-Sep-23 03:34N 51°20' E 004°16'10 9.5
2014-Sep-23 02:34N 51°23' E 004°02'9 9.1
2014-Sep-23 01:33N 51°21' E 003°48'1110.9
2014-Sep-23 00:33N 51°25' E 003°32'1111.1
2014-Sep-22 23:33N 51°24' E 003°14'1313.1
2014-Sep-22 22:33N 51°22' E 002°53'1313.0
2014-Sep-22 21:32N 51°22' E 002°32'1111.1
2014-Sep-22 20:32N 51°18' E 002°15'1110.9
2014-Sep-22 19:33N 51°22' E 001°60'8 7.7
2014-Sep-22 18:33N 51°30' E 001°59'9 9.0
2014-Sep-22 17:34N 51°37' E 002°09'5 1.7
2014-Sep-22 14:34N 51°42' E 002°07'8 7.9
2014-Sep-22 13:34N 51°36' E 001°59'1111.2
2014-Sep-22 12:34N 51°31' E 001°43'1111.2
2014-Sep-22 11:33N 51°25' E 001°27'0 0.0
2014-Sep-22 10:33N 51°25' E 001°27'0 0.0
2014-Sep-22 09:33N 51°25' E 001°27'0 0.1
2014-Sep-22 08:33N 51°25' E 001°27'0 0.0
2014-Sep-22 07:33N 51°25' E 001°27'0 0.0
2014-Sep-22 06:33N 51°25' E 001°27'0 0.0
2014-Sep-22 05:34N 51°25' E 001°27'0 0.0
2014-Sep-22 04:34N 51°25' E 001°27'0 0.0
2014-Sep-22 03:34N 51°25' E 001°27'0 0.0
2014-Sep-22 02:34N 51°25' E 001°27'0 0.0
2014-Sep-22 01:34N 51°25' E 001°27'0 0.1
2014-Sep-22 00:33N 51°25' E 001°27'0 0.0
2014-Sep-21 23:33N 51°25' E 001°27'0 0.1
2014-Sep-21 22:33N 51°25' E 001°27'0 0.0
2014-Sep-21 21:33N 51°25' E 001°27'0 0.1
2014-Sep-21 20:33N 51°25' E 001°27'0 0.0
2014-Sep-21 19:33N 51°25' E 001°27'0 0.0
2014-Sep-21 18:33N 51°25' E 001°27'0 0.0
2014-Sep-21 17:34N 51°25' E 001°27'0 0.0
2014-Sep-21 16:33N 51°25' E 001°27'0 0.0
2014-Sep-21 15:33N 51°25' E 001°27'0 0.0
2014-Sep-21 14:34N 51°25' E 001°27'0 0.0
2014-Sep-21 13:34N 51°25' E 001°27'6 6.2
2014-Sep-21 12:33N 51°29' E 001°19'1514.7
2014-Sep-21 11:34N 51°29' E 000°55'1313.3
2014-Sep-21 10:33N 51°30' E 000°34'9 9.3
2014-Sep-21 09:33N 51°28' E 000°19'1 0.9
2014-Sep-21 08:33N 51°28' E 000°18'  

Dump ship's entire track history